createdAt,value
2023-06-11T00:06:24.664Z,48.14
2023-06-11T00:16:50.577Z,48.56
2023-06-11T00:27:15.269Z,49.84
2023-06-11T00:37:39.554Z,51.41
2023-06-11T00:48:05.235Z,52.98
2023-06-11T00:58:31.232Z,54.05
2023-06-11T01:08:59.157Z,54.88
2023-06-11T01:19:48.680Z,55.52
2023-06-11T01:30:18.918Z,56.46
2023-06-11T01:40:44.610Z,56.40
2023-06-11T01:51:08.983Z,56.82
2023-06-11T02:01:34.285Z,57.54
2023-06-11T02:11:58.526Z,57.97
2023-06-11T02:22:22.610Z,58.46
2023-06-11T02:32:47.583Z,59.12
2023-06-11T02:43:11.918Z,59.76
2023-06-11T02:53:36.849Z,60.14
2023-06-11T03:04:01.600Z,60.23
2023-06-11T03:14:27.620Z,60.11
2023-06-11T03:24:52.556Z,59.99
2023-06-11T03:35:25.231Z,60.03
2023-06-11T03:45:50.516Z,59.53
2023-06-11T03:56:14.997Z,59.14
2023-06-11T04:06:41.173Z,58.89
2023-06-11T04:17:06.030Z,58.81
2023-06-11T04:27:35.353Z,58.76
2023-06-11T04:38:04.516Z,58.38
2023-06-11T04:48:30.405Z,57.41
2023-06-11T04:58:55.000Z,56.55
2023-06-11T05:09:19.585Z,56.04
2023-06-11T05:19:46.318Z,55.81
2023-06-11T05:30:12.052Z,55.31
2023-06-11T05:40:41.012Z,54.92
2023-06-11T05:51:05.470Z,54.53
2023-06-11T06:01:34.494Z,53.86
2023-06-11T06:11:59.918Z,54.08
2023-06-11T06:22:24.980Z,54.81
2023-06-11T06:32:50.359Z,55.17
2023-06-11T06:43:15.390Z,55.38
2023-06-11T06:53:41.344Z,55.45
2023-06-11T07:04:06.562Z,55.82
2023-06-11T07:14:30.882Z,55.84
2023-06-11T07:24:58.157Z,56.05
2023-06-11T07:35:23.521Z,56.53
2023-06-11T07:45:48.379Z,56.82
2023-06-11T07:56:14.297Z,56.92
2023-06-11T08:06:39.319Z,56.42
2023-06-11T08:17:04.604Z,56.05
2023-06-11T08:27:29.131Z,55.55
2023-06-11T08:37:54.127Z,54.96
2023-06-11T08:48:24.161Z,55.04
2023-06-11T08:58:49.400Z,54.45
2023-06-11T09:09:14.701Z,52.17
2023-06-11T09:19:39.169Z,51.30
2023-06-11T09:30:12.128Z,50.42
2023-06-11T09:40:37.337Z,49.50
2023-06-11T09:51:04.103Z,49.93
2023-06-11T10:01:31.966Z,49.68
2023-06-11T10:12:08.625Z,48.50
2023-06-11T10:22:35.811Z,47.92
2023-06-11T10:33:01.738Z,48.54
2023-06-11T10:43:27.307Z,47.46
2023-06-11T10:54:00.099Z,46.13
2023-06-11T11:04:24.433Z,43.30
2023-06-11T11:14:49.266Z,41.76
2023-06-11T11:25:16.817Z,40.17
2023-06-11T11:35:55.221Z,39.70
2023-06-11T11:46:22.664Z,37.96
2023-06-11T11:56:47.364Z,38.21
2023-06-11T12:07:16.613Z,38.75
2023-06-11T12:17:42.427Z,37.69
2023-06-11T12:28:07.566Z,36.96
2023-06-11T12:38:31.565Z,36.66
2023-06-11T12:48:56.128Z,35.88
2023-06-11T12:59:22.208Z,35.55
2023-06-11T13:09:46.360Z,35.58
2023-06-11T13:20:12.109Z,34.58
2023-06-11T13:30:37.742Z,33.69
2023-06-11T13:41:05.195Z,33.25
2023-06-11T13:51:32.927Z,32.83
2023-06-11T14:02:02.707Z,32.40
2023-06-11T14:12:27.612Z,32.58
2023-06-11T14:22:52.415Z,33.02
2023-06-11T14:33:17.935Z,32.63
2023-06-11T14:43:42.051Z,32.40
2023-06-11T14:54:06.780Z,31.00
2023-06-11T15:04:31.469Z,31.75
2023-06-11T15:14:55.670Z,31.89
2023-06-11T15:25:20.609Z,30.99
2023-06-11T15:35:45.040Z,31.01
2023-06-11T15:46:09.023Z,30.55
2023-06-11T15:56:34.625Z,30.70
2023-06-11T16:07:01.808Z,28.51
2023-06-11T16:17:26.753Z,29.20
2023-06-11T16:27:51.864Z,28.46
2023-06-11T16:38:16.114Z,28.52
2023-06-11T16:48:40.522Z,28.19
2023-06-11T16:59:05.719Z,28.29
2023-06-11T17:09:30.758Z,28.38
2023-06-11T17:19:54.964Z,28.68
2023-06-11T17:30:19.965Z,28.62
2023-06-11T17:40:45.095Z,29.15
2023-06-11T17:51:09.767Z,28.32
2023-06-11T18:01:36.547Z,27.31
2023-06-11T18:12:01.634Z,27.11
2023-06-11T18:22:28.808Z,27.21
2023-06-11T18:32:53.326Z,28.27
2023-06-11T18:43:18.216Z,29.89
2023-06-11T18:53:42.479Z,31.41
2023-06-11T19:04:07.484Z,32.32
2023-06-11T19:14:32.030Z,33.85
2023-06-11T19:24:59.024Z,35.20
2023-06-11T19:35:24.668Z,36.66
2023-06-11T19:46:05.371Z,38.07
2023-06-11T19:56:29.457Z,38.47
2023-06-11T20:07:01.687Z,39.14
2023-06-11T20:17:26.480Z,39.84
2023-06-11T20:27:51.303Z,40.10
2023-06-11T20:38:16.414Z,40.35
2023-06-11T20:48:42.042Z,41.02
2023-06-11T20:59:09.267Z,41.44
2023-06-11T21:09:35.664Z,42.11
2023-06-11T21:20:00.005Z,42.66
2023-06-11T21:30:24.035Z,43.53
2023-06-11T21:40:48.826Z,44.51
2023-06-11T21:51:13.263Z,45.07
2023-06-11T22:01:37.784Z,45.96
2023-06-11T22:12:03.290Z,46.56
2023-06-11T22:22:27.598Z,46.88
2023-06-11T22:32:51.312Z,47.21
2023-06-11T22:43:16.171Z,47.61
2023-06-11T22:53:40.842Z,48.25
2023-06-11T23:04:05.081Z,49.51
2023-06-11T23:14:30.183Z,50.38
2023-06-11T23:24:55.437Z,51.15
2023-06-11T23:35:20.447Z,51.51
2023-06-11T23:45:45.105Z,51.28
2023-06-11T23:56:09.449Z,51.37
